Wykagyl, New York
Current Conditions -  °F | °C
As of 1:56 AM on Thursday 27 Nov 2014 (Local Time) from KHPN Reporting Station
Light Snow Light Snow  
Wind Chill: 22°   Ceiling: 8000
Heat Index: 33°   Visibility: 10mi
Dew Point: 29°   Wind: 17mph
Humidity: 85%   Direction: 330°NNW
Pressure: 29.84"   Gusts: NA
Location:  40.95°N, 73.79°W
Report Text: KHPN 270656Z 33015KT 10SM -SN SCT014 BKN080 01/M02 A2984 RMK AO2 PK WND 32026/0600 SNB52 SLP112 P0000 T00061017
Loading
Personal Weather Stations






























Interactive Weather Map New forecast layout! Learn more

10-Day Weather Forecast

Advertisements
Track Severe Weather on mobile